createdAt,value
2022-12-08T00:02:13.866Z,1.00
2022-12-08T00:07:34.219Z,0.60
2022-12-08T00:12:38.342Z,0.00
2022-12-08T00:17:41.130Z,0.00
2022-12-08T00:22:43.981Z,1.00
2022-12-08T00:27:48.134Z,0.00
2022-12-08T00:32:50.851Z,0.40
2022-12-08T00:37:59.106Z,0.00
2022-12-08T00:43:04.834Z,0.00
2022-12-08T00:48:07.693Z,0.00
2022-12-08T00:53:10.498Z,0.00
2022-12-08T00:58:14.590Z,0.00
2022-12-08T01:03:17.532Z,0.00
2022-12-08T01:08:20.446Z,1.00
2022-12-08T01:13:24.657Z,0.00
2022-12-08T01:18:27.919Z,0.60
2022-12-08T01:23:30.960Z,0.00
2022-12-08T01:28:35.120Z,0.00
2022-12-08T01:33:37.858Z,0.40
2022-12-08T01:38:40.667Z,0.00
2022-12-08T01:43:58.900Z,0.00
2022-12-08T01:49:03.912Z,0.20
2022-12-08T01:54:06.827Z,0.00
2022-12-08T01:59:10.999Z,0.40
2022-12-08T02:04:13.769Z,1.00
2022-12-08T02:09:16.537Z,0.00
2022-12-08T02:14:20.681Z,0.00
2022-12-08T02:19:50.498Z,0.00
2022-12-08T02:24:56.793Z,0.00
2022-12-08T02:30:07.894Z,0.40
2022-12-08T02:35:12.966Z,0.00
2022-12-08T02:40:18.598Z,0.00
2022-12-08T02:45:23.781Z,0.00
2022-12-08T02:50:27.943Z,0.00
2022-12-08T02:55:33.002Z,0.00
2022-12-08T03:00:39.238Z,0.00
2022-12-08T03:05:55.705Z,0.00
2022-12-08T03:11:01.107Z,0.40
2022-12-08T03:16:04.159Z,0.00
2022-12-08T03:21:08.415Z,0.00
2022-12-08T03:26:13.248Z,0.60
2022-12-08T03:31:16.063Z,0.00
2022-12-08T03:36:20.255Z,0.00
2022-12-08T03:41:23.257Z,0.00
2022-12-08T03:51:30.321Z,0.00
2022-12-08T03:56:34.428Z,0.00
2022-12-08T04:01:37.517Z,0.00
2022-12-08T04:06:41.698Z,0.00
2022-12-08T04:11:44.443Z,0.00
2022-12-08T04:16:47.223Z,0.00
2022-12-08T04:21:51.494Z,0.00
2022-12-08T04:26:54.334Z,0.00
2022-12-08T04:31:57.131Z,0.00
2022-12-08T04:37:01.348Z,0.00
2022-12-08T04:42:04.261Z,0.00
2022-12-08T04:47:07.032Z,0.00
2022-12-08T04:52:11.257Z,0.00
2022-12-08T04:57:14.036Z,0.00
2022-12-08T05:02:16.883Z,0.00
2022-12-08T05:07:21.716Z,0.00
2022-12-08T05:12:24.531Z,0.00
2022-12-08T05:17:27.322Z,0.00
2022-12-08T05:22:31.512Z,0.00
2022-12-08T05:27:34.321Z,0.00
2022-12-08T05:32:37.076Z,0.00
2022-12-08T05:37:41.177Z,0.00
2022-12-08T05:42:43.932Z,0.00
2022-12-08T05:47:46.712Z,0.00
2022-12-08T05:52:50.841Z,0.00
2022-12-08T05:57:53.652Z,0.00
2022-12-08T06:02:56.515Z,0.00
2022-12-08T06:08:00.734Z,0.00
2022-12-08T06:13:03.580Z,0.00
2022-12-08T06:18:06.762Z,0.00
2022-12-08T06:23:11.028Z,0.00
2022-12-08T06:28:13.797Z,0.00
2022-12-08T06:33:16.592Z,0.00
2022-12-08T06:38:20.729Z,0.00
2022-12-08T06:43:23.525Z,0.00
2022-12-08T06:48:26.597Z,0.00
2022-12-08T06:53:30.721Z,0.00
2022-12-08T06:58:33.531Z,0.00
2022-12-08T07:03:36.292Z,0.00
2022-12-08T07:08:40.434Z,0.00
2022-12-08T07:13:43.196Z,0.00
2022-12-08T07:18:45.950Z,0.00
2022-12-08T07:23:57.112Z,0.00
2022-12-08T07:29:01.104Z,0.00
2022-12-08T07:34:03.898Z,0.00
2022-12-08T07:39:08.059Z,0.00
2022-12-08T07:44:13.458Z,0.00
2022-12-08T07:49:16.407Z,0.00
2022-12-08T07:54:20.732Z,0.00
2022-12-08T07:59:23.488Z,0.00
2022-12-08T08:04:26.401Z,0.00
2022-12-08T08:09:30.634Z,0.00
2022-12-08T08:14:33.452Z,6.00
2022-12-08T08:19:36.197Z,6.80
2022-12-08T08:24:44.854Z,7.00
2022-12-08T08:29:48.105Z,3.20
2022-12-08T08:34:51.707Z,4.00
2022-12-08T08:39:56.516Z,2.00
2022-12-08T08:44:59.284Z,2.00
2022-12-08T08:50:02.385Z,1.20
2022-12-08T08:55:07.708Z,1.00
2022-12-08T09:00:12.201Z,1.00
2022-12-08T09:05:14.960Z,1.00
2022-12-08T09:10:19.254Z,1.00
2022-12-08T09:15:21.996Z,1.00
2022-12-08T09:20:24.818Z,0.00
2022-12-08T09:25:29.226Z,0.60
2022-12-08T09:30:32.037Z,1.00
2022-12-08T09:35:34.872Z,1.00
2022-12-08T09:40:42.809Z,1.00
2022-12-08T09:45:45.607Z,1.00
2022-12-08T09:50:52.490Z,1.00
2022-12-08T09:55:57.541Z,0.00
2022-12-08T10:01:00.380Z,1.00
2022-12-08T10:06:05.725Z,0.80
2022-12-08T10:11:12.296Z,0.00
2022-12-08T10:16:24.237Z,0.00
2022-12-08T10:21:31.677Z,0.00
2022-12-08T10:26:35.809Z,0.00
2022-12-08T10:31:38.695Z,0.40
2022-12-08T10:36:48.862Z,0.00
2022-12-08T10:41:53.765Z,0.40
2022-12-08T10:46:56.662Z,1.00
2022-12-08T10:51:59.662Z,0.00
2022-12-08T10:57:04.147Z,0.00
2022-12-08T11:02:09.230Z,0.20
2022-12-08T11:07:12.153Z,0.80
2022-12-08T11:12:16.552Z,1.00
2022-12-08T11:17:25.563Z,1.00
2022-12-08T11:22:30.964Z,0.20
2022-12-08T11:27:36.717Z,0.00
2022-12-08T11:32:41.356Z,0.00
2022-12-08T11:37:44.410Z,0.20
2022-12-08T11:42:53.102Z,0.60
2022-12-08T11:47:59.292Z,0.00
2022-12-08T11:53:02.136Z,0.60
2022-12-08T11:58:22.807Z,0.00
2022-12-08T12:03:29.810Z,0.00
2022-12-08T12:08:40.712Z,0.00
2022-12-08T12:13:54.263Z,1.00
2022-12-08T12:18:57.553Z,0.60
2022-12-08T12:24:00.960Z,0.00
2022-12-08T12:29:06.582Z,1.00
2022-12-08T12:34:11.981Z,0.00
2022-12-08T12:39:14.764Z,0.00
2022-12-08T12:44:37.408Z,0.20
2022-12-08T12:49:54.165Z,0.00
2022-12-08T12:55:21.589Z,0.00
2022-12-08T13:00:27.059Z,0.00
2022-12-08T13:05:30.845Z,0.00
2022-12-08T13:10:34.329Z,0.00
2022-12-08T13:15:39.603Z,0.00
2022-12-08T13:20:43.572Z,0.00
2022-12-08T13:25:51.385Z,0.60
2022-12-08T13:30:56.695Z,0.00
2022-12-08T13:36:07.181Z,0.00
2022-12-08T13:41:14.638Z,0.00
2022-12-08T13:47:03.228Z,0.00
2022-12-08T13:53:34.929Z,0.00
2022-12-08T13:57:11.576Z,0.00
2022-12-08T14:02:18.614Z,0.20
2022-12-08T14:07:21.957Z,0.00
2022-12-08T14:12:26.110Z,0.00
2022-12-08T14:17:30.318Z,0.00
2022-12-08T14:22:34.095Z,0.00
2022-12-08T14:27:37.769Z,0.20
2022-12-08T14:32:44.489Z,0.00
2022-12-08T14:37:48.198Z,0.00
2022-12-08T14:42:52.276Z,0.00
2022-12-08T14:47:56.371Z,0.00
2022-12-08T14:52:59.221Z,1.00
2022-12-08T14:58:02.191Z,0.00
2022-12-08T15:03:08.561Z,0.00
2022-12-08T15:08:12.795Z,0.00
2022-12-08T15:13:23.049Z,0.00
2022-12-08T15:18:33.410Z,0.00
2022-12-08T15:23:39.386Z,0.00
2022-12-08T15:28:42.310Z,0.00
2022-12-08T15:33:46.625Z,0.00
2022-12-08T15:38:49.372Z,0.00
2022-12-08T15:43:52.168Z,0.00
2022-12-08T15:48:58.276Z,0.00
2022-12-08T15:54:01.258Z,0.00
2022-12-08T15:59:04.042Z,0.00
2022-12-08T16:05:17.994Z,0.00
2022-12-08T16:09:32.577Z,0.00
2022-12-08T16:19:59.732Z,0.00
2022-12-08T16:25:17.641Z,0.00
2022-12-08T16:30:21.624Z,0.00
2022-12-08T16:35:25.729Z,0.00
2022-12-08T16:40:28.559Z,0.00
2022-12-08T16:45:31.446Z,0.00
2022-12-08T16:50:36.013Z,0.00
2022-12-08T16:55:39.328Z,0.00
2022-12-08T17:00:42.177Z,0.00
2022-12-08T17:05:46.542Z,0.00
2022-12-08T17:11:07.087Z,0.00
2022-12-08T17:16:10.540Z,0.80
2022-12-08T17:21:15.805Z,1.00
2022-12-08T17:26:18.663Z,2.00
2022-12-08T17:31:23.466Z,2.60
2022-12-08T17:36:31.982Z,3.00
2022-12-08T17:41:34.750Z,2.20
2022-12-08T17:46:42.097Z,3.00
2022-12-08T17:51:49.061Z,2.00
2022-12-08T17:56:51.883Z,2.20
2022-12-08T18:01:54.836Z,1.00
2022-12-08T18:07:01.144Z,2.40
2022-12-08T18:12:03.965Z,1.00
2022-12-08T18:17:06.996Z,1.00
2022-12-08T18:22:12.230Z,1.40
2022-12-08T18:27:15.011Z,1.40
2022-12-08T18:32:17.851Z,1.20
2022-12-08T18:37:22.057Z,1.00
2022-12-08T18:42:25.154Z,1.80
2022-12-08T18:47:28.169Z,2.40
2022-12-08T18:52:33.477Z,2.00
2022-12-08T18:57:38.196Z,2.00
2022-12-08T19:02:41.046Z,2.00
2022-12-08T19:07:45.651Z,2.00
2022-12-08T19:12:50.743Z,2.00
2022-12-08T19:17:53.517Z,2.20
2022-12-08T19:22:57.770Z,2.40
2022-12-08T19:28:00.529Z,2.00
2022-12-08T19:33:03.297Z,2.00
2022-12-08T19:38:07.521Z,2.20
2022-12-08T19:43:47.501Z,2.00
2022-12-08T19:48:50.302Z,4.80
2022-12-08T19:53:54.729Z,3.20
2022-12-08T19:58:57.594Z,3.00
2022-12-08T20:04:00.382Z,3.00
2022-12-08T20:09:04.828Z,2.80
2022-12-08T20:14:07.531Z,4.80
2022-12-08T20:19:10.545Z,2.60
2022-12-08T20:24:14.722Z,3.20
2022-12-08T20:29:18.738Z,2.80
2022-12-08T20:34:21.497Z,2.60
2022-12-08T20:39:25.656Z,3.00
2022-12-08T20:44:29.301Z,2.40
2022-12-08T20:49:34.745Z,3.00
2022-12-08T20:54:39.518Z,3.00
2022-12-08T20:59:42.414Z,2.00
2022-12-08T21:04:45.584Z,3.00
2022-12-08T21:09:50.211Z,2.60
2022-12-08T21:14:53.395Z,3.00
2022-12-08T21:19:56.321Z,3.00
2022-12-08T21:25:00.565Z,2.60
2022-12-08T21:30:03.764Z,2.60
2022-12-08T21:35:07.994Z,3.00
2022-12-08T21:40:13.787Z,4.80
2022-12-08T21:45:17.684Z,5.80
2022-12-08T21:50:20.872Z,18.00
2022-12-08T21:55:25.405Z,5.40
2022-12-08T22:00:28.277Z,4.20
2022-12-08T22:05:31.531Z,3.80
2022-12-08T22:10:35.693Z,5.40
2022-12-08T22:15:39.287Z,4.00
2022-12-08T22:20:44.169Z,3.80
2022-12-08T22:25:56.454Z,6.00
2022-12-08T22:30:59.283Z,4.00
2022-12-08T22:36:09.673Z,5.80
2022-12-08T22:41:15.034Z,4.00
2022-12-08T22:46:19.856Z,3.00
2022-12-08T22:51:22.957Z,4.00
2022-12-08T22:56:27.329Z,4.00
2022-12-08T23:01:30.822Z,3.00
2022-12-08T23:06:33.779Z,4.00
2022-12-08T23:11:38.112Z,3.20
2022-12-08T23:16:41.102Z,4.00
2022-12-08T23:21:44.184Z,4.00
